sensor_id;sensor_type;location;lat;lon;timestamp;P1;durP1;ratioP1;P2;durP2;ratioP2
49460;SDS011;35355;49.198;-0.368;2024-03-06T00:00:14;0.75;;;0.20;;
49460;SDS011;35355;49.198;-0.368;2024-03-06T00:02:39;2.58;;;0.30;;
49460;SDS011;35355;49.198;-0.368;2024-03-06T00:05:05;3.50;;;0.50;;
49460;SDS011;35355;49.198;-0.368;2024-03-06T00:07:32;1.42;;;0.38;;
49460;SDS011;35355;49.198;-0.368;2024-03-06T00:09:58;3.75;;;0.47;;
49460;SDS011;35355;49.198;-0.368;2024-03-06T00:12:23;5.25;;;0.30;;
49460;SDS011;35355;49.198;-0.368;2024-03-06T00:14:48;0.88;;;0.30;;
49460;SDS011;35355;49.198;-0.368;2024-03-06T00:17:14;1.67;;;0.50;;
49460;SDS011;35355;49.198;-0.368;2024-03-06T00:19:39;1.25;;;0.10;;
49460;SDS011;35355;49.198;-0.368;2024-03-06T00:22:04;1.65;;;0.20;;
49460;SDS011;35355;49.198;-0.368;2024-03-06T00:24:30;1.50;;;0.30;;
49460;SDS011;35355;49.198;-0.368;2024-03-06T00:26:57;0.20;;;0.08;;
49460;SDS011;35355;49.198;-0.368;2024-03-06T00:29:22;0.52;;;0.10;;
49460;SDS011;35355;49.198;-0.368;2024-03-06T00:31:48;1.17;;;0.30;;
49460;SDS011;35355;49.198;-0.368;2024-03-06T00:34:13;0.85;;;0.10;;
49460;SDS011;35355;49.198;-0.368;2024-03-06T00:36:45;1.40;;;0.28;;
49460;SDS011;35355;49.198;-0.368;2024-03-06T00:39:10;4.22;;;0.30;;
49460;SDS011;35355;49.198;-0.368;2024-03-06T00:41:39;0.90;;;0.17;;
49460;SDS011;35355;49.198;-0.368;2024-03-06T00:44:05;2.38;;;0.30;;
49460;SDS011;35355;49.198;-0.368;2024-03-06T00:46:30;1.40;;;0.30;;
49460;SDS011;35355;49.198;-0.368;2024-03-06T00:48:56;0.85;;;0.30;;
49460;SDS011;35355;49.198;-0.368;2024-03-06T00:51:21;2.53;;;0.40;;
49460;SDS011;35355;49.198;-0.368;2024-03-06T00:53:46;3.90;;;0.47;;
49460;SDS011;35355;49.198;-0.368;2024-03-06T00:56:12;1.50;;;0.30;;
49460;SDS011;35355;49.198;-0.368;2024-03-06T00:58:37;2.70;;;0.30;;
49460;SDS011;35355;49.198;-0.368;2024-03-06T01:01:03;0.82;;;0.13;;
49460;SDS011;35355;49.198;-0.368;2024-03-06T01:03:29;1.13;;;0.40;;
49460;SDS011;35355;49.198;-0.368;2024-03-06T01:05:54;2.05;;;0.38;;
49460;SDS011;35355;49.198;-0.368;2024-03-06T01:08:21;2.85;;;0.60;;
49460;SDS011;35355;49.198;-0.368;2024-03-06T01:10:49;2.85;;;0.28;;
49460;SDS011;35355;49.198;-0.368;2024-03-06T01:13:15;2.25;;;0.40;;
49460;SDS011;35355;49.198;-0.368;2024-03-06T01:15:41;4.80;;;0.50;;
49460;SDS011;35355;49.198;-0.368;2024-03-06T01:18:06;2.47;;;0.45;;
49460;SDS011;35355;49.198;-0.368;2024-03-06T01:20:31;2.17;;;0.25;;
49460;SDS011;35355;49.198;-0.368;2024-03-06T01:22:57;2.08;;;0.60;;
49460;SDS011;35355;49.198;-0.368;2024-03-06T01:25:22;2.70;;;0.50;;
49460;SDS011;35355;49.198;-0.368;2024-03-06T01:27:48;2.22;;;0.40;;
49460;SDS011;35355;49.198;-0.368;2024-03-06T01:30:14;2.00;;;0.68;;
49460;SDS011;35355;49.198;-0.368;2024-03-06T01:32:39;3.72;;;1.00;;
49460;SDS011;35355;49.198;-0.368;2024-03-06T01:35:04;2.63;;;0.50;;
49460;SDS011;35355;49.198;-0.368;2024-03-06T01:37:31;4.20;;;0.93;;
49460;SDS011;35355;49.198;-0.368;2024-03-06T01:39:56;3.65;;;0.63;;
49460;SDS011;35355;49.198;-0.368;2024-03-06T01:42:22;8.40;;;1.80;;
49460;SDS011;35355;49.198;-0.368;2024-03-06T01:44:47;2.30;;;0.75;;
49460;SDS011;35355;49.198;-0.368;2024-03-06T01:47:13;6.20;;;1.00;;
49460;SDS011;35355;49.198;-0.368;2024-03-06T01:49:38;5.65;;;0.60;;
49460;SDS011;35355;49.198;-0.368;2024-03-06T01:52:04;3.75;;;0.63;;
49460;SDS011;35355;49.198;-0.368;2024-03-06T01:54:30;2.45;;;0.47;;
49460;SDS011;35355;49.198;-0.368;2024-03-06T01:56:57;2.33;;;0.50;;
49460;SDS011;35355;49.198;-0.368;2024-03-06T01:59:25;3.20;;;0.40;;
49460;SDS011;35355;49.198;-0.368;2024-03-06T02:01:54;2.40;;;0.63;;
49460;SDS011;35355;49.198;-0.368;2024-03-06T02:04:20;4.22;;;0.68;;
49460;SDS011;35355;49.198;-0.368;2024-03-06T02:06:45;3.15;;;0.70;;
49460;SDS011;35355;49.198;-0.368;2024-03-06T02:09:11;2.60;;;0.70;;
49460;SDS011;35355;49.198;-0.368;2024-03-06T02:11:39;2.83;;;1.00;;
49460;SDS011;35355;49.198;-0.368;2024-03-06T02:14:05;4.55;;;0.70;;
49460;SDS011;35355;49.198;-0.368;2024-03-06T02:16:34;4.40;;;1.58;;
49460;SDS011;35355;49.198;-0.368;2024-03-06T02:19:00;4.65;;;1.20;;
49460;SDS011;35355;49.198;-0.368;2024-03-06T02:21:25;4.32;;;1.40;;
49460;SDS011;35355;49.198;-0.368;2024-03-06T02:23:51;5.20;;;1.10;;
49460;SDS011;35355;49.198;-0.368;2024-03-06T02:26:20;3.90;;;1.00;;
49460;SDS011;35355;49.198;-0.368;2024-03-06T02:28:47;3.90;;;0.80;;
49460;SDS011;35355;49.198;-0.368;2024-03-06T02:31:13;3.42;;;0.77;;
49460;SDS011;35355;49.198;-0.368;2024-03-06T02:33:39;5.82;;;0.80;;
49460;SDS011;35355;49.198;-0.368;2024-03-06T02:36:04;2.70;;;0.98;;
49460;SDS011;35355;49.198;-0.368;2024-03-06T02:38:30;1.90;;;0.65;;
49460;SDS011;35355;49.198;-0.368;2024-03-06T02:40:56;6.25;;;0.70;;
49460;SDS011;35355;49.198;-0.368;2024-03-06T02:43:21;3.53;;;1.63;;
49460;SDS011;35355;49.198;-0.368;2024-03-06T02:45:46;4.57;;;0.98;;
49460;SDS011;35355;49.198;-0.368;2024-03-06T02:48:12;2.00;;;0.55;;
49460;SDS011;35355;49.198;-0.368;2024-03-06T02:50:37;3.22;;;0.73;;
49460;SDS011;35355;49.198;-0.368;2024-03-06T02:53:02;5.00;;;0.80;;
49460;SDS011;35355;49.198;-0.368;2024-03-06T02:55:28;2.67;;;0.63;;
49460;SDS011;35355;49.198;-0.368;2024-03-06T02:57:53;2.05;;;0.90;;
49460;SDS011;35355;49.198;-0.368;2024-03-06T03:00:18;6.13;;;0.82;;
49460;SDS011;35355;49.198;-0.368;2024-03-06T03:02:44;5.97;;;1.45;;
49460;SDS011;35355;49.198;-0.368;2024-03-06T03:05:09;4.88;;;0.95;;
49460;SDS011;35355;49.198;-0.368;2024-03-06T03:07:35;2.70;;;0.93;;
49460;SDS011;35355;49.198;-0.368;2024-03-06T03:10:01;3.47;;;0.77;;
49460;SDS011;35355;49.198;-0.368;2024-03-06T03:12:26;2.08;;;0.73;;
49460;SDS011;35355;49.198;-0.368;2024-03-06T03:14:51;4.93;;;1.00;;
49460;SDS011;35355;49.198;-0.368;2024-03-06T03:17:18;3.22;;;0.98;;
49460;SDS011;35355;49.198;-0.368;2024-03-06T03:19:44;5.65;;;1.60;;
49460;SDS011;35355;49.198;-0.368;2024-03-06T03:22:10;2.40;;;0.77;;
49460;SDS011;35355;49.198;-0.368;2024-03-06T03:24:35;5.22;;;1.00;;
49460;SDS011;35355;49.198;-0.368;2024-03-06T03:27:02;4.57;;;0.75;;
49460;SDS011;35355;49.198;-0.368;2024-03-06T03:29:27;4.40;;;0.60;;
49460;SDS011;35355;49.198;-0.368;2024-03-06T03:31:53;5.00;;;0.90;;
49460;SDS011;35355;49.198;-0.368;2024-03-06T03:34:18;3.75;;;1.08;;
49460;SDS011;35355;49.198;-0.368;2024-03-06T03:36:44;5.57;;;1.85;;
49460;SDS011;35355;49.198;-0.368;2024-03-06T03:39:10;1.73;;;0.52;;
49460;SDS011;35355;49.198;-0.368;2024-03-06T03:41:47;3.70;;;0.63;;
49460;SDS011;35355;49.198;-0.368;2024-03-06T03:44:13;1.75;;;0.63;;
49460;SDS011;35355;49.198;-0.368;2024-03-06T03:46:40;3.95;;;0.60;;
49460;SDS011;35355;49.198;-0.368;2024-03-06T03:49:06;3.53;;;0.77;;
49460;SDS011;35355;49.198;-0.368;2024-03-06T03:51:31;4.85;;;0.57;;
49460;SDS011;35355;49.198;-0.368;2024-03-06T03:53:56;1.27;;;0.50;;
49460;SDS011;35355;49.198;-0.368;2024-03-06T03:56:22;8.75;;;1.13;;
49460;SDS011;35355;49.198;-0.368;2024-03-06T03:58:47;4.72;;;0.73;;
49460;SDS011;35355;49.198;-0.368;2024-03-06T04:01:12;3.25;;;0.60;;
49460;SDS011;35355;49.198;-0.368;2024-03-06T04:03:40;5.03;;;1.42;;
49460;SDS011;35355;49.198;-0.368;2024-03-06T04:06:07;7.43;;;1.48;;
49460;SDS011;35355;49.198;-0.368;2024-03-06T04:08:32;2.25;;;0.65;;
49460;SDS011;35355;49.198;-0.368;2024-03-06T04:10:58;5.22;;;1.30;;
49460;SDS011;35355;49.198;-0.368;2024-03-06T04:13:23;2.85;;;1.02;;
49460;SDS011;35355;49.198;-0.368;2024-03-06T04:15:48;8.52;;;1.88;;
49460;SDS011;35355;49.198;-0.368;2024-03-06T04:18:14;5.78;;;0.70;;
49460;SDS011;35355;49.198;-0.368;2024-03-06T04:20:39;10.05;;;1.33;;
49460;SDS011;35355;49.198;-0.368;2024-03-06T04:23:05;7.63;;;1.77;;
49460;SDS011;35355;49.198;-0.368;2024-03-06T04:25:30;4.90;;;1.02;;
49460;SDS011;35355;49.198;-0.368;2024-03-06T04:27:55;10.55;;;1.88;;
49460;SDS011;35355;49.198;-0.368;2024-03-06T04:30:21;7.45;;;1.50;;
49460;SDS011;35355;49.198;-0.368;2024-03-06T04:32:46;7.63;;;1.60;;
49460;SDS011;35355;49.198;-0.368;2024-03-06T04:35:12;12.55;;;1.88;;
49460;SDS011;35355;49.198;-0.368;2024-03-06T04:37:37;14.57;;;2.05;;
49460;SDS011;35355;49.198;-0.368;2024-03-06T04:40:03;6.78;;;1.73;;
49460;SDS011;35355;49.198;-0.368;2024-03-06T04:42:32;11.18;;;2.42;;
49460;SDS011;35355;49.198;-0.368;2024-03-06T04:45:01;9.10;;;1.23;;
49460;SDS011;35355;49.198;-0.368;2024-03-06T04:47:28;6.07;;;2.03;;
49460;SDS011;35355;49.198;-0.368;2024-03-06T04:49:53;10.35;;;2.17;;
49460;SDS011;35355;49.198;-0.368;2024-03-06T04:52:19;11.25;;;1.45;;
49460;SDS011;35355;49.198;-0.368;2024-03-06T04:54:44;7.45;;;1.55;;
49460;SDS011;35355;49.198;-0.368;2024-03-06T04:57:10;15.43;;;1.58;;
49460;SDS011;35355;49.198;-0.368;2024-03-06T04:59:35;13.50;;;1.98;;
49460;SDS011;35355;49.198;-0.368;2024-03-06T05:02:01;13.45;;;2.10;;
49460;SDS011;35355;49.198;-0.368;2024-03-06T05:04:28;9.98;;;1.25;;
49460;SDS011;35355;49.198;-0.368;2024-03-06T05:06:53;10.65;;;1.42;;
49460;SDS011;35355;49.198;-0.368;2024-03-06T05:09:18;13.00;;;2.08;;
49460;SDS011;35355;49.198;-0.368;2024-03-06T05:11:44;11.23;;;1.88;;
49460;SDS011;35355;49.198;-0.368;2024-03-06T05:14:09;12.20;;;1.80;;
49460;SDS011;35355;49.198;-0.368;2024-03-06T05:16:35;14.57;;;2.05;;
49460;SDS011;35355;49.198;-0.368;2024-03-06T05:19:00;12.95;;;2.08;;
49460;SDS011;35355;49.198;-0.368;2024-03-06T05:21:26;14.63;;;1.60;;
49460;SDS011;35355;49.198;-0.368;2024-03-06T05:23:51;11.50;;;2.20;;
49460;SDS011;35355;49.198;-0.368;2024-03-06T05:26:17;9.60;;;1.75;;
49460;SDS011;35355;49.198;-0.368;2024-03-06T05:28:42;13.77;;;2.08;;
49460;SDS011;35355;49.198;-0.368;2024-03-06T05:31:17;16.85;;;2.40;;
49460;SDS011;35355;49.198;-0.368;2024-03-06T05:33:44;13.68;;;2.20;;
49460;SDS011;35355;49.198;-0.368;2024-03-06T05:36:10;15.82;;;3.25;;
49460;SDS011;35355;49.198;-0.368;2024-03-06T05:38:38;15.00;;;2.50;;
49460;SDS011;35355;49.198;-0.368;2024-03-06T05:41:03;9.57;;;2.25;;
49460;SDS011;35355;49.198;-0.368;2024-03-06T05:43:29;10.82;;;3.28;;
49460;SDS011;35355;49.198;-0.368;2024-03-06T05:45:54;9.77;;;2.42;;
49460;SDS011;35355;49.198;-0.368;2024-03-06T05:48:19;14.13;;;2.63;;
49460;SDS011;35355;49.198;-0.368;2024-03-06T05:50:45;13.82;;;2.38;;
49460;SDS011;35355;49.198;-0.368;2024-03-06T05:53:10;14.35;;;3.20;;
49460;SDS011;35355;49.198;-0.368;2024-03-06T05:55:36;17.10;;;2.45;;
49460;SDS011;35355;49.198;-0.368;2024-03-06T05:58:02;18.30;;;3.65;;
49460;SDS011;35355;49.198;-0.368;2024-03-06T06:00:27;8.50;;;2.75;;
49460;SDS011;35355;49.198;-0.368;2024-03-06T06:02:52;14.38;;;3.45;;
49460;SDS011;35355;49.198;-0.368;2024-03-06T06:05:18;13.25;;;3.80;;
49460;SDS011;35355;49.198;-0.368;2024-03-06T06:07:47;19.80;;;3.75;;
49460;SDS011;35355;49.198;-0.368;2024-03-06T06:10:13;17.67;;;2.95;;
49460;SDS011;35355;49.198;-0.368;2024-03-06T06:12:39;14.95;;;2.88;;
49460;SDS011;35355;49.198;-0.368;2024-03-06T06:15:04;14.93;;;3.15;;
49460;SDS011;35355;49.198;-0.368;2024-03-06T06:17:32;15.77;;;3.05;;
49460;SDS011;35355;49.198;-0.368;2024-03-06T06:19:57;9.70;;;3.55;;
49460;SDS011;35355;49.198;-0.368;2024-03-06T06:22:23;16.90;;;3.45;;
49460;SDS011;35355;49.198;-0.368;2024-03-06T06:24:48;17.65;;;3.13;;
49460;SDS011;35355;49.198;-0.368;2024-03-06T06:27:14;19.95;;;2.80;;
49460;SDS011;35355;49.198;-0.368;2024-03-06T06:29:40;9.43;;;2.88;;
49460;SDS011;35355;49.198;-0.368;2024-03-06T06:32:06;23.08;;;2.83;;
49460;SDS011;35355;49.198;-0.368;2024-03-06T06:34:32;12.00;;;3.65;;
49460;SDS011;35355;49.198;-0.368;2024-03-06T06:36:57;11.07;;;3.20;;
49460;SDS011;35355;49.198;-0.368;2024-03-06T06:39:22;10.85;;;2.45;;
49460;SDS011;35355;49.198;-0.368;2024-03-06T06:41:48;10.50;;;2.80;;
49460;SDS011;35355;49.198;-0.368;2024-03-06T06:44:13;12.77;;;2.78;;
49460;SDS011;35355;49.198;-0.368;2024-03-06T06:46:39;10.50;;;3.28;;
49460;SDS011;35355;49.198;-0.368;2024-03-06T06:49:04;14.85;;;2.85;;
49460;SDS011;35355;49.198;-0.368;2024-03-06T06:51:30;10.10;;;2.70;;
49460;SDS011;35355;49.198;-0.368;2024-03-06T06:53:55;14.73;;;2.72;;
49460;SDS011;35355;49.198;-0.368;2024-03-06T06:56:20;13.52;;;2.95;;
49460;SDS011;35355;49.198;-0.368;2024-03-06T06:58:48;10.70;;;2.50;;
49460;SDS011;35355;49.198;-0.368;2024-03-06T07:01:14;6.10;;;2.03;;
49460;SDS011;35355;49.198;-0.368;2024-03-06T07:03:41;16.27;;;3.35;;
49460;SDS011;35355;49.198;-0.368;2024-03-06T07:06:07;9.88;;;2.03;;
49460;SDS011;35355;49.198;-0.368;2024-03-06T07:08:32;11.10;;;2.53;;
49460;SDS011;35355;49.198;-0.368;2024-03-06T07:10:58;6.28;;;2.30;;
49460;SDS011;35355;49.198;-0.368;2024-03-06T07:13:23;11.80;;;3.15;;
49460;SDS011;35355;49.198;-0.368;2024-03-06T07:15:49;13.25;;;2.28;;
49460;SDS011;35355;49.198;-0.368;2024-03-06T07:18:14;11.98;;;2.60;;
49460;SDS011;35355;49.198;-0.368;2024-03-06T07:20:39;17.35;;;2.60;;
49460;SDS011;35355;49.198;-0.368;2024-03-06T07:23:06;13.13;;;2.78;;
49460;SDS011;35355;49.198;-0.368;2024-03-06T07:25:31;16.85;;;3.33;;
49460;SDS011;35355;49.198;-0.368;2024-03-06T07:27:57;19.50;;;3.35;;
49460;SDS011;35355;49.198;-0.368;2024-03-06T07:30:22;15.43;;;3.50;;
49460;SDS011;35355;49.198;-0.368;2024-03-06T07:32:47;11.52;;;2.90;;
49460;SDS011;35355;49.198;-0.368;2024-03-06T07:35:13;21.02;;;3.55;;
49460;SDS011;35355;49.198;-0.368;2024-03-06T07:37:38;13.20;;;3.05;;
49460;SDS011;35355;49.198;-0.368;2024-03-06T07:40:04;20.75;;;3.03;;
49460;SDS011;35355;49.198;-0.368;2024-03-06T07:42:31;16.92;;;4.00;;
49460;SDS011;35355;49.198;-0.368;2024-03-06T07:44:58;13.90;;;3.33;;
49460;SDS011;35355;49.198;-0.368;2024-03-06T07:47:23;18.08;;;3.83;;
49460;SDS011;35355;49.198;-0.368;2024-03-06T07:49:49;16.88;;;2.75;;
49460;SDS011;35355;49.198;-0.368;2024-03-06T07:52:15;21.30;;;3.67;;
49460;SDS011;35355;49.198;-0.368;2024-03-06T07:54:41;13.93;;;3.05;;
49460;SDS011;35355;49.198;-0.368;2024-03-06T07:57:06;18.60;;;3.63;;
49460;SDS011;35355;49.198;-0.368;2024-03-06T07:59:32;21.38;;;3.17;;
49460;SDS011;35355;49.198;-0.368;2024-03-06T08:01:57;25.27;;;5.35;;
49460;SDS011;35355;49.198;-0.368;2024-03-06T08:04:22;15.05;;;3.28;;
49460;SDS011;35355;49.198;-0.368;2024-03-06T08:06:48;11.65;;;3.10;;
49460;SDS011;35355;49.198;-0.368;2024-03-06T08:09:13;19.48;;;3.20;;
49460;SDS011;35355;49.198;-0.368;2024-03-06T08:11:41;23.48;;;2.90;;
49460;SDS011;35355;49.198;-0.368;2024-03-06T08:14:07;17.88;;;3.22;;
49460;SDS011;35355;49.198;-0.368;2024-03-06T08:16:32;21.92;;;3.08;;
49460;SDS011;35355;49.198;-0.368;2024-03-06T08:18:58;15.15;;;3.50;;
49460;SDS011;35355;49.198;-0.368;2024-03-06T08:21:24;18.63;;;4.00;;
49460;SDS011;35355;49.198;-0.368;2024-03-06T08:23:50;17.90;;;3.20;;
49460;SDS011;35355;49.198;-0.368;2024-03-06T08:26:15;14.10;;;4.05;;
49460;SDS011;35355;49.198;-0.368;2024-03-06T08:28:41;16.30;;;3.88;;
49460;SDS011;35355;49.198;-0.368;2024-03-06T08:31:06;10.57;;;2.70;;
49460;SDS011;35355;49.198;-0.368;2024-03-06T08:33:33;18.33;;;3.67;;
49460;SDS011;35355;49.198;-0.368;2024-03-06T08:35:58;17.58;;;4.20;;
49460;SDS011;35355;49.198;-0.368;2024-03-06T08:38:24;15.30;;;3.58;;
49460;SDS011;35355;49.198;-0.368;2024-03-06T08:40:50;19.75;;;3.85;;
49460;SDS011;35355;49.198;-0.368;2024-03-06T08:43:16;18.75;;;4.82;;
49460;SDS011;35355;49.198;-0.368;2024-03-06T08:45:41;18.75;;;4.93;;
49460;SDS011;35355;49.198;-0.368;2024-03-06T08:48:07;23.83;;;4.10;;
49460;SDS011;35355;49.198;-0.368;2024-03-06T08:50:32;17.58;;;4.00;;
49460;SDS011;35355;49.198;-0.368;2024-03-06T08:52:58;13.32;;;3.47;;
49460;SDS011;35355;49.198;-0.368;2024-03-06T08:55:23;21.30;;;4.05;;
49460;SDS011;35355;49.198;-0.368;2024-03-06T08:57:48;25.90;;;5.78;;
49460;SDS011;35355;49.198;-0.368;2024-03-06T09:00:15;19.55;;;4.68;;
49460;SDS011;35355;49.198;-0.368;2024-03-06T09:02:42;21.83;;;4.30;;
49460;SDS011;35355;49.198;-0.368;2024-03-06T09:05:08;9.90;;;3.25;;
49460;SDS011;35355;49.198;-0.368;2024-03-06T09:07:37;20.88;;;3.85;;
49460;SDS011;35355;49.198;-0.368;2024-03-06T09:10:14;13.07;;;4.15;;
49460;SDS011;35355;49.198;-0.368;2024-03-06T09:12:40;21.02;;;3.80;;
49460;SDS011;35355;49.198;-0.368;2024-03-06T09:15:06;18.90;;;3.92;;
49460;SDS011;35355;49.198;-0.368;2024-03-06T09:17:32;17.20;;;3.58;;
49460;SDS011;35355;49.198;-0.368;2024-03-06T09:19:58;20.88;;;4.05;;
49460;SDS011;35355;49.198;-0.368;2024-03-06T09:22:23;24.20;;;4.38;;
49460;SDS011;35355;49.198;-0.368;2024-03-06T09:24:48;29.88;;;5.40;;
49460;SDS011;35355;49.198;-0.368;2024-03-06T09:27:14;10.40;;;3.33;;
49460;SDS011;35355;49.198;-0.368;2024-03-06T09:29:41;17.63;;;4.30;;
49460;SDS011;35355;49.198;-0.368;2024-03-06T09:32:07;19.88;;;4.32;;
49460;SDS011;35355;49.198;-0.368;2024-03-06T09:34:33;16.25;;;4.35;;
49460;SDS011;35355;49.198;-0.368;2024-03-06T09:36:58;25.65;;;4.00;;
49460;SDS011;35355;49.198;-0.368;2024-03-06T09:39:24;16.20;;;3.65;;
49460;SDS011;35355;49.198;-0.368;2024-03-06T09:41:49;16.25;;;3.72;;
49460;SDS011;35355;49.198;-0.368;2024-03-06T09:44:15;20.25;;;3.95;;
49460;SDS011;35355;49.198;-0.368;2024-03-06T09:46:46;16.55;;;4.20;;
49460;SDS011;35355;49.198;-0.368;2024-03-06T09:49:14;16.08;;;4.28;;
49460;SDS011;35355;49.198;-0.368;2024-03-06T09:51:44;21.75;;;3.55;;
49460;SDS011;35355;49.198;-0.368;2024-03-06T09:54:14;16.83;;;4.22;;
49460;SDS011;35355;49.198;-0.368;2024-03-06T09:56:42;15.43;;;4.65;;
49460;SDS011;35355;49.198;-0.368;2024-03-06T09:59:08;21.42;;;5.25;;
49460;SDS011;35355;49.198;-0.368;2024-03-06T10:01:35;31.45;;;4.38;;
49460;SDS011;35355;49.198;-0.368;2024-03-06T10:04:21;28.75;;;4.85;;
49460;SDS011;35355;49.198;-0.368;2024-03-06T10:06:57;25.23;;;6.70;;
49460;SDS011;35355;49.198;-0.368;2024-03-06T10:09:24;18.17;;;4.53;;
49460;SDS011;35355;49.198;-0.368;2024-03-06T10:11:50;20.48;;;4.35;;
49460;SDS011;35355;49.198;-0.368;2024-03-06T10:14:21;18.95;;;4.65;;
49460;SDS011;35355;49.198;-0.368;2024-03-06T10:16:59;17.17;;;4.25;;
49460;SDS011;35355;49.198;-0.368;2024-03-06T10:19:26;18.63;;;4.22;;
49460;SDS011;35355;49.198;-0.368;2024-03-06T10:21:53;19.35;;;5.57;;
49460;SDS011;35355;49.198;-0.368;2024-03-06T10:24:23;23.33;;;4.88;;
49460;SDS011;35355;49.198;-0.368;2024-03-06T10:26:59;22.40;;;3.80;;
49460;SDS011;35355;49.198;-0.368;2024-03-06T10:29:26;28.77;;;4.65;;
49460;SDS011;35355;49.198;-0.368;2024-03-06T10:31:55;22.42;;;4.18;;
49460;SDS011;35355;49.198;-0.368;2024-03-06T10:34:22;14.50;;;3.63;;
49460;SDS011;35355;49.198;-0.368;2024-03-06T10:36:56;14.77;;;4.32;;
49460;SDS011;35355;49.198;-0.368;2024-03-06T10:39:28;18.05;;;4.50;;
49460;SDS011;35355;49.198;-0.368;2024-03-06T10:41:56;22.38;;;5.53;;
49460;SDS011;35355;49.198;-0.368;2024-03-06T10:44:22;20.00;;;4.43;;
49460;SDS011;35355;49.198;-0.368;2024-03-06T10:47:03;25.55;;;5.75;;
49460;SDS011;35355;49.198;-0.368;2024-03-06T10:49:31;17.67;;;2.65;;
49460;SDS011;35355;49.198;-0.368;2024-03-06T10:52:01;13.90;;;2.67;;
49460;SDS011;35355;49.198;-0.368;2024-03-06T10:54:31;13.03;;;2.67;;
49460;SDS011;35355;49.198;-0.368;2024-03-06T10:56:57;20.52;;;4.25;;
49460;SDS011;35355;49.198;-0.368;2024-03-06T10:59:24;12.15;;;2.55;;
49460;SDS011;35355;49.198;-0.368;2024-03-06T11:01:54;12.07;;;2.60;;
49460;SDS011;35355;49.198;-0.368;2024-03-06T11:04:24;18.35;;;4.35;;
49460;SDS011;35355;49.198;-0.368;2024-03-06T11:06:51;14.88;;;3.53;;
49460;SDS011;35355;49.198;-0.368;2024-03-06T11:09:17;20.17;;;3.10;;
49460;SDS011;35355;49.198;-0.368;2024-03-06T11:11:51;16.42;;;2.88;;
49460;SDS011;35355;49.198;-0.368;2024-03-06T11:14:17;16.77;;;3.53;;
49460;SDS011;35355;49.198;-0.368;2024-03-06T11:16:56;21.95;;;3.20;;
49460;SDS011;35355;49.198;-0.368;2024-03-06T11:19:24;12.18;;;2.42;;
49460;SDS011;35355;49.198;-0.368;2024-03-06T11:21:49;8.82;;;1.92;;
49460;SDS011;35355;49.198;-0.368;2024-03-06T11:24:15;14.35;;;2.95;;
49460;SDS011;35355;49.198;-0.368;2024-03-06T11:26:46;11.43;;;1.88;;
49460;SDS011;35355;49.198;-0.368;2024-03-06T11:29:13;9.07;;;2.10;;
49460;SDS011;35355;49.198;-0.368;2024-03-06T11:31:55;9.95;;;1.73;;
49460;SDS011;35355;49.198;-0.368;2024-03-06T11:34:35;16.77;;;2.50;;
49460;SDS011;35355;49.198;-0.368;2024-03-06T11:37:04;12.15;;;2.53;;
49460;SDS011;35355;49.198;-0.368;2024-03-06T11:39:35;13.77;;;2.13;;
49460;SDS011;35355;49.198;-0.368;2024-03-06T11:42:02;12.98;;;2.10;;
49460;SDS011;35355;49.198;-0.368;2024-03-06T11:44:28;12.48;;;2.35;;
49460;SDS011;35355;49.198;-0.368;2024-03-06T11:49:25;12.68;;;1.95;;
49460;SDS011;35355;49.198;-0.368;2024-03-06T11:51:54;7.47;;;1.13;;
49460;SDS011;35355;49.198;-0.368;2024-03-06T11:54:22;13.63;;;1.60;;
49460;SDS011;35355;49.198;-0.368;2024-03-06T11:56:52;11.57;;;1.77;;
49460;SDS011;35355;49.198;-0.368;2024-03-06T12:01:49;14.00;;;2.60;;
49460;SDS011;35355;49.198;-0.368;2024-03-06T12:04:16;10.77;;;2.25;;
49460;SDS011;35355;49.198;-0.368;2024-03-06T12:06:41;11.85;;;1.98;;
49460;SDS011;35355;49.198;-0.368;2024-03-06T12:09:06;6.82;;;1.88;;
49460;SDS011;35355;49.198;-0.368;2024-03-06T12:11:36;11.15;;;2.22;;
49460;SDS011;35355;49.198;-0.368;2024-03-06T12:14:03;12.93;;;4.30;;
49460;SDS011;35355;49.198;-0.368;2024-03-06T12:16:30;8.93;;;1.60;;
49460;SDS011;35355;49.198;-0.368;2024-03-06T12:18:55;7.90;;;1.52;;
49460;SDS011;35355;49.198;-0.368;2024-03-06T12:21:33;5.30;;;1.25;;
49460;SDS011;35355;49.198;-0.368;2024-03-06T12:24:06;9.20;;;2.00;;
49460;SDS011;35355;49.198;-0.368;2024-03-06T12:31:53;9.05;;;1.90;;
49460;SDS011;35355;49.198;-0.368;2024-03-06T12:34:18;4.13;;;2.47;;
49460;SDS011;35355;49.198;-0.368;2024-03-06T12:36:43;7.18;;;2.08;;
49460;SDS011;35355;49.198;-0.368;2024-03-06T12:39:09;13.07;;;2.60;;
49460;SDS011;35355;49.198;-0.368;2024-03-06T12:41:40;6.88;;;2.28;;
49460;SDS011;35355;49.198;-0.368;2024-03-06T12:44:06;12.13;;;2.65;;
49460;SDS011;35355;49.198;-0.368;2024-03-06T12:46:34;10.60;;;2.55;;
49460;SDS011;35355;49.198;-0.368;2024-03-06T12:49:00;11.60;;;2.65;;
49460;SDS011;35355;49.198;-0.368;2024-03-06T12:51:26;11.48;;;2.00;;
49460;SDS011;35355;49.198;-0.368;2024-03-06T12:53:51;13.70;;;1.70;;
49460;SDS011;35355;49.198;-0.368;2024-03-06T12:56:17;10.00;;;2.13;;
49460;SDS011;35355;49.198;-0.368;2024-03-06T12:58:44;8.45;;;2.05;;
49460;SDS011;35355;49.198;-0.368;2024-03-06T13:01:09;7.32;;;1.83;;
49460;SDS011;35355;49.198;-0.368;2024-03-06T13:03:35;7.13;;;1.92;;
49460;SDS011;35355;49.198;-0.368;2024-03-06T13:06:01;8.73;;;2.03;;
49460;SDS011;35355;49.198;-0.368;2024-03-06T13:08:26;6.28;;;1.27;;
49460;SDS011;35355;49.198;-0.368;2024-03-06T13:10:52;5.63;;;1.38;;
49460;SDS011;35355;49.198;-0.368;2024-03-06T13:13:17;10.13;;;1.52;;
49460;SDS011;35355;49.198;-0.368;2024-03-06T13:15:42;9.07;;;1.83;;
49460;SDS011;35355;49.198;-0.368;2024-03-06T13:18:08;11.95;;;2.47;;
49460;SDS011;35355;49.198;-0.368;2024-03-06T13:20:34;5.40;;;1.60;;
49460;SDS011;35355;49.198;-0.368;2024-03-06T13:22:59;8.98;;;1.85;;
49460;SDS011;35355;49.198;-0.368;2024-03-06T13:25:25;14.05;;;1.30;;
49460;SDS011;35355;49.198;-0.368;2024-03-06T13:27:51;8.30;;;1.85;;
49460;SDS011;35355;49.198;-0.368;2024-03-06T13:30:19;5.78;;;1.25;;
49460;SDS011;35355;49.198;-0.368;2024-03-06T13:32:45;6.13;;;1.52;;
49460;SDS011;35355;49.198;-0.368;2024-03-06T13:35:11;10.20;;;1.65;;
49460;SDS011;35355;49.198;-0.368;2024-03-06T13:37:41;7.72;;;1.05;;
49460;SDS011;35355;49.198;-0.368;2024-03-06T13:40:07;6.93;;;1.40;;
49460;SDS011;35355;49.198;-0.368;2024-03-06T13:42:34;9.18;;;1.40;;
49460;SDS011;35355;49.198;-0.368;2024-03-06T13:45:00;8.15;;;1.40;;
49460;SDS011;35355;49.198;-0.368;2024-03-06T13:47:26;10.95;;;2.17;;
49460;SDS011;35355;49.198;-0.368;2024-03-06T13:49:51;9.32;;;1.60;;
49460;SDS011;35355;49.198;-0.368;2024-03-06T13:52:17;7.32;;;1.20;;
49460;SDS011;35355;49.198;-0.368;2024-03-06T13:54:45;5.30;;;1.25;;
49460;SDS011;35355;49.198;-0.368;2024-03-06T13:57:10;8.30;;;1.48;;
49460;SDS011;35355;49.198;-0.368;2024-03-06T13:59:36;10.45;;;2.22;;
49460;SDS011;35355;49.198;-0.368;2024-03-06T14:02:02;10.95;;;3.15;;
49460;SDS011;35355;49.198;-0.368;2024-03-06T14:04:28;14.18;;;2.70;;
49460;SDS011;35355;49.198;-0.368;2024-03-06T14:06:54;10.88;;;3.22;;
49460;SDS011;35355;49.198;-0.368;2024-03-06T14:09:21;12.55;;;2.90;;
49460;SDS011;35355;49.198;-0.368;2024-03-06T14:11:48;9.32;;;1.88;;
49460;SDS011;35355;49.198;-0.368;2024-03-06T14:14:17;7.10;;;1.55;;
49460;SDS011;35355;49.198;-0.368;2024-03-06T14:16:43;7.75;;;1.92;;
49460;SDS011;35355;49.198;-0.368;2024-03-06T14:19:08;9.95;;;1.65;;
49460;SDS011;35355;49.198;-0.368;2024-03-06T14:21:34;6.15;;;1.30;;
49460;SDS011;35355;49.198;-0.368;2024-03-06T14:24:00;7.47;;;1.20;;
49460;SDS011;35355;49.198;-0.368;2024-03-06T14:26:30;9.05;;;1.85;;
49460;SDS011;35355;49.198;-0.368;2024-03-06T14:28:56;11.15;;;1.92;;
49460;SDS011;35355;49.198;-0.368;2024-03-06T14:31:22;7.05;;;1.45;;
49460;SDS011;35355;49.198;-0.368;2024-03-06T14:33:47;6.93;;;1.60;;